createdAt,value
2019-02-16T00:00:03.145Z,0.93
2019-02-16T00:02:33.724Z,0.83
2019-02-16T00:05:04.536Z,0.90
2019-02-16T00:07:34.877Z,1.27
2019-02-16T00:10:05.414Z,0.50
2019-02-16T00:12:35.646Z,0.50
2019-02-16T00:15:06.133Z,0.70
2019-02-16T00:17:36.452Z,0.67
2019-02-16T00:20:06.811Z,0.50
2019-02-16T00:22:37.041Z,0.93
2019-02-16T00:25:07.598Z,0.70
2019-02-16T00:27:37.932Z,0.83
2019-02-16T00:30:08.195Z,1.40
2019-02-16T00:32:38.695Z,1.63
2019-02-16T00:35:09.010Z,0.60
2019-02-16T00:37:39.313Z,0.53
2019-02-16T00:40:09.766Z,0.63
2019-02-16T00:42:40.104Z,0.90
2019-02-16T00:45:10.340Z,0.70
2019-02-16T00:47:40.687Z,0.50
2019-02-16T00:50:11.730Z,0.63
2019-02-16T00:52:42.072Z,1.17
2019-02-16T00:55:12.318Z,0.70
2019-02-16T00:57:42.733Z,0.40
2019-02-16T01:00:13.360Z,0.90
2019-02-16T01:02:43.688Z,0.97
2019-02-16T01:05:13.960Z,1.93
2019-02-16T01:07:44.262Z,1.23
2019-02-16T01:10:14.812Z,0.90
2019-02-16T01:12:45.167Z,0.83
2019-02-16T01:15:15.424Z,0.90
2019-02-16T01:17:45.849Z,2.07
2019-02-16T01:20:16.085Z,1.80
2019-02-16T01:22:46.313Z,1.13
2019-02-16T01:25:16.633Z,1.33
2019-02-16T01:27:47.036Z,1.40
2019-02-16T01:30:17.277Z,1.80
2019-02-16T01:32:47.535Z,2.00
2019-02-16T01:35:17.871Z,1.30
2019-02-16T01:37:48.262Z,1.20
2019-02-16T01:40:18.502Z,0.93
2019-02-16T01:42:48.743Z,0.80
2019-02-16T01:45:19.071Z,0.57
2019-02-16T01:47:49.605Z,0.70
2019-02-16T01:50:19.925Z,0.60
2019-02-16T01:52:50.181Z,1.07
2019-02-16T01:55:20.525Z,0.80
2019-02-16T01:57:50.735Z,0.57
2019-02-16T02:00:21.138Z,0.60
2019-02-16T02:02:51.466Z,0.73
2019-02-16T02:05:21.878Z,0.70
2019-02-16T02:07:52.126Z,0.87
2019-02-16T02:10:22.568Z,0.43
2019-02-16T02:12:52.878Z,0.63
2019-02-16T02:15:23.092Z,0.87
2019-02-16T02:17:53.328Z,0.90
2019-02-16T02:20:24.547Z,0.50
2019-02-16T02:22:54.895Z,0.50
2019-02-16T02:25:25.135Z,0.50
2019-02-16T02:27:55.371Z,0.57
2019-02-16T02:30:25.712Z,0.60
2019-02-16T02:32:56.035Z,0.43
2019-02-16T02:35:26.265Z,0.73
2019-02-16T02:37:56.582Z,0.40
2019-02-16T02:40:26.820Z,0.80
2019-02-16T02:42:57.043Z,0.67
2019-02-16T02:45:27.381Z,2.50
2019-02-16T02:47:58.084Z,3.60
2019-02-16T02:50:28.468Z,1.10
2019-02-16T02:52:58.685Z,1.10
2019-02-16T02:55:29.117Z,1.00
2019-02-16T02:57:59.444Z,0.90
2019-02-16T03:00:29.739Z,1.13
2019-02-16T03:02:59.981Z,2.60
2019-02-16T03:05:30.387Z,2.63
2019-02-16T03:08:00.726Z,3.47
2019-02-16T03:10:30.960Z,5.37
2019-02-16T03:13:01.195Z,4.67
2019-02-16T03:15:31.628Z,3.20
2019-02-16T03:18:01.856Z,1.83
2019-02-16T03:20:32.188Z,2.40
2019-02-16T03:23:19.010Z,3.10
2019-02-16T03:26:15.108Z,3.83
2019-02-16T03:28:56.202Z,4.80
2019-02-16T03:32:14.747Z,6.00
2019-02-16T03:35:07.432Z,4.10
2019-02-16T03:37:59.349Z,4.83
2019-02-16T03:40:29.658Z,4.43
2019-02-16T03:43:00.007Z,3.53
2019-02-16T03:45:30.335Z,5.70
2019-02-16T03:48:00.551Z,5.23
2019-02-16T03:50:31.117Z,3.43
2019-02-16T03:53:01.567Z,3.43
2019-02-16T03:55:31.886Z,3.87
2019-02-16T03:58:02.236Z,5.70
2019-02-16T04:00:32.577Z,9.53
2019-02-16T04:03:02.822Z,6.63
2019-02-16T04:05:33.038Z,6.90
2019-02-16T04:08:03.378Z,9.10
2019-02-16T04:10:33.676Z,7.13
2019-02-16T04:13:04.067Z,8.27
2019-02-16T04:15:34.426Z,10.67
2019-02-16T04:18:04.783Z,10.13
2019-02-16T04:20:35.112Z,8.53
2019-02-16T04:23:05.352Z,8.13
2019-02-16T04:25:35.597Z,6.57
2019-02-16T04:28:05.935Z,7.80
2019-02-16T04:30:36.251Z,10.23
2019-02-16T04:33:06.481Z,15.57
2019-02-16T04:35:36.768Z,14.37
2019-02-16T04:38:07.117Z,11.77
2019-02-16T04:40:37.435Z,8.30
2019-02-16T04:43:07.733Z,6.73
2019-02-16T04:45:37.985Z,11.43
2019-02-16T04:48:08.323Z,19.07
2019-02-16T04:50:38.892Z,12.90
2019-02-16T04:53:09.208Z,12.53
2019-02-16T04:55:39.441Z,10.90
2019-02-16T04:58:09.868Z,11.93
2019-02-16T05:00:40.196Z,16.43
2019-02-16T05:03:10.429Z,9.80
2019-02-16T05:05:40.681Z,19.77
2019-02-16T05:08:11.018Z,23.00
2019-02-16T05:10:41.366Z,9.20
2019-02-16T05:13:11.585Z,7.50
2019-02-16T05:15:41.802Z,7.00
2019-02-16T05:18:12.131Z,7.30
2019-02-16T05:20:42.346Z,10.97
2019-02-16T05:23:12.692Z,8.60
2019-02-16T05:25:43.026Z,11.87
2019-02-16T05:28:13.267Z,12.10
2019-02-16T05:30:43.515Z,12.90
2019-02-16T05:33:13.842Z,9.83
2019-02-16T05:35:44.169Z,10.00
2019-02-16T05:38:14.400Z,16.47
2019-02-16T05:40:44.654Z,17.10
2019-02-16T05:43:15.014Z,16.20
2019-02-16T05:45:45.349Z,25.30
2019-02-16T05:48:15.591Z,20.30
2019-02-16T05:50:45.951Z,23.57
2019-02-16T05:53:16.289Z,18.07
2019-02-16T05:55:46.621Z,15.50
2019-02-16T05:58:16.846Z,17.90
2019-02-16T06:00:47.174Z,27.93
2019-02-16T06:03:17.424Z,23.50
2019-02-16T06:05:47.681Z,19.07
2019-02-16T06:08:18.005Z,27.10
2019-02-16T06:10:48.347Z,37.47
2019-02-16T06:13:18.594Z,33.23
2019-02-16T06:15:48.854Z,32.90
2019-02-16T06:18:19.238Z,28.53
2019-02-16T06:20:49.598Z,17.90
2019-02-16T06:23:19.847Z,18.97
2019-02-16T06:25:50.155Z,16.33
2019-02-16T06:28:20.478Z,14.10
2019-02-16T06:30:50.810Z,11.77
2019-02-16T06:33:21.041Z,15.10
2019-02-16T06:35:54.659Z,13.80
2019-02-16T06:38:25.006Z,10.00
2019-02-16T06:40:55.255Z,9.30
2019-02-16T06:43:25.632Z,11.50
2019-02-16T06:45:55.997Z,13.73
2019-02-16T06:48:26.259Z,16.60
2019-02-16T06:50:56.702Z,14.13
2019-02-16T06:53:27.290Z,10.90
2019-02-16T06:56:05.509Z,9.43
2019-02-16T06:58:35.753Z,8.47
2019-02-16T07:01:06.013Z,6.60
2019-02-16T07:03:36.555Z,4.17
2019-02-16T07:06:06.879Z,5.90
2019-02-16T07:08:37.102Z,5.00
2019-02-16T07:11:07.744Z,3.70
2019-02-16T07:13:38.119Z,5.27
2019-02-16T07:16:40.892Z,6.17
2019-02-16T07:19:20.299Z,3.80
2019-02-16T07:21:51.088Z,12.27
2019-02-16T07:24:21.441Z,26.90
2019-02-16T07:26:52.002Z,11.90
2019-02-16T07:29:22.476Z,3.20
2019-02-16T07:31:52.841Z,1.57
2019-02-16T07:34:23.173Z,4.90
2019-02-16T07:36:53.423Z,1.70
2019-02-16T07:39:23.814Z,7.40
2019-02-16T07:41:54.215Z,3.13
2019-02-16T07:44:46.065Z,4.00
2019-02-16T07:47:47.233Z,4.47
2019-02-16T07:50:45.295Z,8.80
2019-02-16T07:53:30.935Z,5.77
2019-02-16T07:56:00.010Z,7.07
2019-02-16T07:58:46.287Z,4.23
2019-02-16T08:01:35.472Z,4.07
2019-02-16T08:04:23.358Z,5.73
2019-02-16T08:09:56.899Z,1.90
2019-02-16T08:12:37.473Z,3.50
2019-02-16T08:15:35.855Z,7.13
2019-02-16T08:18:28.079Z,2.37
2019-02-16T08:21:20.147Z,2.33
2019-02-16T08:24:25.085Z,2.57
2019-02-16T08:27:14.107Z,4.83
2019-02-16T08:29:51.616Z,2.37
2019-02-16T08:32:43.767Z,3.50
2019-02-16T08:35:27.912Z,4.13
2019-02-16T08:38:29.472Z,2.87
2019-02-16T08:41:21.674Z,3.13
2019-02-16T08:44:15.359Z,5.10
2019-02-16T08:47:17.959Z,6.10
2019-02-16T08:50:07.641Z,2.57
2019-02-16T08:52:47.378Z,3.33
2019-02-16T08:55:42.692Z,1.60
2019-02-16T08:58:36.258Z,1.73
2019-02-16T09:01:29.523Z,1.50
2019-02-16T09:04:11.408Z,3.03
2019-02-16T09:06:59.555Z,2.00
2019-02-16T09:09:49.745Z,4.20
2019-02-16T09:12:29.385Z,3.60
2019-02-16T09:15:11.994Z,4.60
2019-02-16T09:18:09.556Z,4.07
2019-02-16T09:20:52.885Z,2.80
2019-02-16T09:23:42.565Z,3.30
2019-02-16T09:26:24.234Z,2.80
2019-02-16T09:29:10.036Z,4.50
2019-02-16T09:31:54.272Z,2.57
2019-02-16T09:34:31.953Z,2.67
2019-02-16T09:37:20.074Z,3.77
2019-02-16T09:40:09.806Z,2.10
2019-02-16T09:42:55.880Z,3.07
2019-02-16T09:45:44.857Z,1.93
2019-02-16T09:48:29.798Z,2.50
2019-02-16T09:51:25.088Z,3.33
2019-02-16T09:54:17.105Z,6.63
2019-02-16T09:56:55.756Z,3.90
2019-02-16T09:59:50.767Z,3.60
2019-02-16T10:02:36.552Z,2.60
2019-02-16T10:05:23.471Z,1.93
2019-02-16T10:08:13.572Z,4.13
2019-02-16T10:11:00.574Z,3.97
2019-02-16T10:13:48.913Z,4.53
2019-02-16T10:16:53.267Z,5.40
2019-02-16T10:19:42.303Z,3.30
2019-02-16T10:22:40.610Z,3.63
2019-02-16T10:25:28.410Z,5.50
2019-02-16T10:28:12.453Z,5.60
2019-02-16T10:30:47.682Z,4.13
2019-02-16T10:33:54.937Z,4.00
2019-02-16T10:36:44.037Z,2.97
2019-02-16T10:39:42.309Z,6.30
2019-02-16T10:42:20.837Z,4.77
2019-02-16T10:45:06.819Z,4.00
2019-02-16T10:47:58.770Z,3.80
2019-02-16T10:50:45.276Z,3.97
2019-02-16T10:53:37.052Z,5.13
2019-02-16T10:56:22.750Z,9.13
2019-02-16T10:59:10.511Z,6.13
2019-02-16T11:02:15.367Z,4.90
2019-02-16T11:05:22.519Z,4.40
2019-02-16T11:08:01.038Z,6.57
2019-02-16T11:10:50.422Z,7.27
2019-02-16T11:13:34.555Z,4.03
2019-02-16T11:16:16.274Z,4.40
2019-02-16T11:19:04.234Z,7.00
2019-02-16T11:22:11.705Z,5.77
2019-02-16T11:25:03.672Z,5.20
2019-02-16T11:27:51.657Z,6.70
2019-02-16T11:30:52.627Z,6.47
2019-02-16T11:33:41.654Z,9.00
2019-02-16T11:36:18.145Z,12.20
2019-02-16T11:39:11.207Z,10.47
2019-02-16T11:42:03.851Z,11.10
2019-02-16T11:44:52.306Z,9.53
2019-02-16T11:47:44.444Z,6.07
2019-02-16T11:50:25.292Z,7.50
2019-02-16T11:53:20.134Z,6.33
2019-02-16T11:56:00.046Z,5.80
2019-02-16T11:58:52.694Z,5.13
2019-02-16T12:01:40.908Z,5.00
2019-02-16T12:04:37.379Z,5.07
2019-02-16T12:07:21.217Z,5.67
2019-02-16T12:10:01.879Z,5.43
2019-02-16T12:13:00.065Z,5.70
2019-02-16T12:15:43.803Z,7.53
2019-02-16T12:18:39.828Z,6.70
2019-02-16T12:21:38.820Z,8.37
2019-02-16T12:24:37.517Z,8.43
2019-02-16T12:27:27.695Z,6.43
2019-02-16T12:30:26.486Z,6.60
2019-02-16T12:33:14.323Z,11.70
2019-02-16T12:36:10.244Z,7.00
2019-02-16T12:39:05.566Z,6.17
2019-02-16T12:42:03.835Z,6.07
2019-02-16T12:44:56.582Z,4.73
2019-02-16T12:47:46.566Z,6.50
2019-02-16T12:50:27.229Z,6.23
2019-02-16T12:53:16.502Z,7.57
2019-02-16T12:56:01.574Z,6.80
2019-02-16T12:58:39.566Z,9.63
2019-02-16T13:01:19.703Z,8.67
2019-02-16T13:04:07.670Z,6.17
2019-02-16T13:07:05.235Z,5.03
2019-02-16T13:09:42.517Z,5.67
2019-02-16T13:12:32.299Z,4.73
2019-02-16T13:15:11.325Z,4.20
2019-02-16T13:18:01.289Z,6.47
2019-02-16T13:20:40.007Z,5.93
2019-02-16T13:23:27.549Z,4.50
2019-02-16T13:26:22.549Z,4.90
2019-02-16T13:29:10.421Z,6.20
2019-02-16T13:31:59.472Z,4.70
2019-02-16T13:34:51.592Z,4.27
2019-02-16T13:37:37.762Z,4.40
2019-02-16T13:40:39.211Z,5.20
2019-02-16T13:43:27.151Z,5.33
2019-02-16T13:46:14.562Z,3.53
2019-02-16T13:48:52.888Z,4.77
2019-02-16T13:51:45.001Z,5.40
2019-02-16T13:54:36.821Z,5.30
2019-02-16T13:57:24.710Z,5.30
2019-02-16T14:00:01.360Z,5.17
2019-02-16T14:02:59.428Z,6.53
2019-02-16T14:05:45.711Z,7.00
2019-02-16T14:08:21.796Z,4.37
2019-02-16T14:11:10.664Z,3.50
2019-02-16T14:13:54.510Z,5.40
2019-02-16T14:16:42.566Z,7.17
2019-02-16T14:19:12.806Z,4.37
2019-02-16T14:21:43.151Z,5.90
2019-02-16T14:24:13.487Z,7.13
2019-02-16T14:26:43.815Z,5.40
2019-02-16T14:29:14.041Z,5.10
2019-02-16T14:31:44.355Z,4.47
2019-02-16T14:34:14.691Z,5.17
2019-02-16T14:36:46.495Z,12.97
2019-02-16T14:39:21.799Z,6.13
2019-02-16T14:41:52.032Z,4.80
2019-02-16T14:44:22.358Z,2.33
2019-02-16T14:46:52.599Z,3.00
2019-02-16T14:49:22.996Z,3.37
2019-02-16T14:51:53.331Z,3.50
2019-02-16T14:54:23.577Z,14.60
2019-02-16T14:56:53.850Z,8.53
2019-02-16T14:59:24.198Z,9.23
2019-02-16T15:01:55.029Z,12.10
2019-02-16T15:04:25.263Z,11.40
2019-02-16T15:06:55.497Z,6.27
2019-02-16T15:09:25.831Z,35.17
2019-02-16T15:11:56.619Z,40.80
2019-02-16T15:14:26.996Z,37.30
2019-02-16T15:16:57.229Z,47.00
2019-02-16T15:19:27.563Z,44.03
2019-02-16T15:21:57.998Z,56.90
2019-02-16T15:24:28.236Z,57.57
2019-02-16T15:26:58.586Z,54.93
2019-02-16T15:29:28.849Z,58.43
2019-02-16T15:31:59.106Z,60.87
2019-02-16T15:34:29.464Z,49.90
2019-02-16T15:36:59.821Z,68.77
2019-02-16T15:39:30.063Z,47.67
2019-02-16T15:42:00.301Z,40.10
2019-02-16T15:44:30.667Z,38.10
2019-02-16T15:47:01.026Z,32.10
2019-02-16T15:49:31.293Z,42.10
2019-02-16T15:52:01.545Z,44.37
2019-02-16T15:54:31.905Z,36.93
2019-02-16T15:57:02.282Z,27.90
2019-02-16T15:59:35.173Z,33.20
2019-02-16T16:02:04.558Z,34.87
2019-02-16T16:04:34.912Z,41.67
2019-02-16T16:07:06.927Z,36.70
2019-02-16T16:09:44.366Z,50.17
2019-02-16T16:12:43.101Z,41.17
2019-02-16T16:15:42.297Z,43.57
2019-02-16T16:18:24.363Z,58.60
2019-02-16T16:21:12.217Z,53.00
2019-02-16T16:23:59.948Z,34.07
2019-02-16T16:26:47.469Z,23.00
2019-02-16T16:29:51.975Z,16.63
2019-02-16T16:32:37.857Z,15.43
2019-02-16T16:35:34.330Z,18.90
2019-02-16T16:38:38.893Z,29.17
2019-02-16T16:41:25.150Z,51.87
2019-02-16T16:44:17.294Z,57.97
2019-02-16T16:47:09.455Z,63.30
2019-02-16T16:49:58.593Z,59.07
2019-02-16T16:52:47.637Z,35.33
2019-02-16T16:55:41.938Z,28.17
2019-02-16T16:58:45.101Z,36.57
2019-02-16T17:01:34.407Z,35.93
2019-02-16T17:04:21.351Z,27.67
2019-02-16T17:07:10.422Z,26.43
2019-02-16T17:09:51.292Z,20.37
2019-02-16T17:12:46.515Z,18.77
2019-02-16T17:15:34.618Z,45.77
2019-02-16T17:18:39.182Z,22.50
2019-02-16T17:21:28.301Z,26.90
2019-02-16T17:24:23.582Z,25.40
2019-02-16T17:27:31.143Z,26.60
2019-02-16T17:30:15.240Z,30.33
2019-02-16T17:33:07.317Z,19.97
2019-02-16T17:35:55.007Z,24.47
2019-02-16T17:38:47.094Z,26.57
2019-02-16T17:41:36.196Z,20.83
2019-02-16T17:44:24.147Z,31.57
2019-02-16T17:47:12.101Z,33.27
2019-02-16T17:50:05.666Z,24.07
2019-02-16T17:52:53.685Z,19.83
2019-02-16T17:55:42.826Z,21.10
2019-02-16T17:58:37.820Z,18.77
2019-02-16T18:01:39.197Z,17.67
2019-02-16T18:04:28.266Z,17.17
2019-02-16T18:07:20.102Z,31.00
2019-02-16T18:09:57.105Z,33.47
2019-02-16T18:12:46.426Z,47.63
2019-02-16T18:15:44.504Z,52.13
2019-02-16T18:18:20.475Z,55.70
2019-02-16T18:21:14.551Z,43.37
2019-02-16T18:24:03.607Z,24.90
2019-02-16T18:26:45.319Z,19.47
2019-02-16T18:29:34.412Z,24.47
2019-02-16T18:32:31.098Z,22.53
2019-02-16T18:35:22.043Z,40.50
2019-02-16T18:37:59.937Z,44.80
2019-02-16T18:40:45.607Z,55.00
2019-02-16T18:43:44.037Z,58.90
2019-02-16T18:46:39.201Z,48.50
2019-02-16T18:49:28.255Z,28.97
2019-02-16T18:52:08.114Z,26.17
2019-02-16T18:54:56.084Z,32.63
2019-02-16T18:57:45.126Z,24.30
2019-02-16T19:00:37.189Z,23.40
2019-02-16T19:03:35.706Z,17.80
2019-02-16T19:06:40.076Z,18.97
2019-02-16T19:09:22.746Z,41.20
2019-02-16T19:12:21.201Z,35.97
2019-02-16T19:15:01.416Z,31.13
2019-02-16T19:17:38.765Z,29.27
2019-02-16T19:20:17.596Z,25.17
2019-02-16T19:23:05.353Z,26.00
2019-02-16T19:25:57.311Z,23.67
2019-02-16T19:28:39.064Z,24.80
2019-02-16T19:31:43.250Z,18.23
2019-02-16T19:34:35.179Z,16.73
2019-02-16T19:37:27.058Z,28.50
2019-02-16T19:40:16.147Z,31.80
2019-02-16T19:43:05.572Z,23.23
2019-02-16T19:45:58.646Z,22.30
2019-02-16T19:48:46.527Z,24.00
2019-02-16T19:51:50.753Z,24.77
2019-02-16T19:54:51.974Z,23.03
2019-02-16T19:57:39.944Z,17.50
2019-02-16T20:00:28.916Z,19.60
2019-02-16T20:03:21.056Z,17.00
2019-02-16T20:06:22.575Z,19.17
2019-02-16T20:09:20.762Z,19.43
2019-02-16T20:12:16.321Z,18.00
2019-02-16T20:15:08.701Z,16.23
2019-02-16T20:17:55.389Z,20.63
2019-02-16T20:20:39.510Z,26.50
2019-02-16T20:23:27.443Z,22.13
2019-02-16T20:26:31.590Z,19.60
2019-02-16T20:29:24.022Z,19.00
2019-02-16T20:32:05.976Z,21.60
2019-02-16T20:35:10.251Z,34.90
2019-02-16T20:38:02.431Z,16.10
2019-02-16T20:40:36.972Z,23.97
2019-02-16T20:43:29.266Z,19.40
2019-02-16T20:46:33.629Z,17.60
2019-02-16T20:49:40.897Z,17.80
2019-02-16T20:52:28.834Z,10.90
2019-02-16T20:55:06.755Z,16.50
2019-02-16T20:57:58.944Z,15.90
2019-02-16T21:00:48.025Z,17.70
2019-02-16T21:03:28.419Z,18.10
2019-02-16T21:06:17.499Z,18.17
2019-02-16T21:08:56.030Z,22.10
2019-02-16T21:11:43.521Z,18.30
2019-02-16T21:14:28.699Z,16.10
2019-02-16T21:17:17.797Z,18.43
2019-02-16T21:20:16.241Z,16.20
2019-02-16T21:23:03.965Z,15.47
2019-02-16T21:25:56.066Z,14.00
2019-02-16T21:28:45.141Z,18.23
2019-02-16T21:31:49.402Z,20.93
2019-02-16T21:34:47.512Z,19.10
2019-02-16T21:37:44.324Z,28.70
2019-02-16T21:40:25.282Z,26.90
2019-02-16T21:43:15.879Z,30.30
2019-02-16T21:46:03.679Z,31.40
2019-02-16T21:48:58.817Z,31.30
2019-02-16T21:51:44.406Z,28.97
2019-02-16T21:54:39.406Z,26.97
2019-02-16T21:57:37.622Z,23.07
2019-02-16T22:00:38.007Z,20.00
2019-02-16T22:03:25.890Z,19.50
2019-02-16T22:06:20.958Z,21.80
2019-02-16T22:09:25.421Z,18.80
2019-02-16T22:12:17.101Z,24.20
2019-02-16T22:14:47.746Z,19.77
2019-02-16T22:17:18.148Z,17.90
2019-02-16T22:19:48.459Z,17.50
2019-02-16T22:22:19.071Z,16.83
2019-02-16T22:24:49.640Z,18.27
2019-02-16T22:27:20.151Z,20.97
2019-02-16T22:29:50.826Z,17.87
2019-02-16T22:32:21.439Z,17.73
2019-02-16T22:34:52.023Z,19.23
2019-02-16T22:37:22.533Z,18.00
2019-02-16T22:39:53.077Z,17.50
2019-02-16T22:42:23.971Z,16.20
2019-02-16T22:44:54.523Z,18.00
2019-02-16T22:47:25.047Z,15.40
2019-02-16T22:49:55.805Z,17.33
2019-02-16T22:52:26.367Z,16.40
2019-02-16T22:54:56.953Z,13.97
2019-02-16T22:57:27.542Z,15.47
2019-02-16T22:59:58.074Z,14.53
2019-02-16T23:02:28.542Z,14.10
2019-02-16T23:04:59.023Z,13.37
2019-02-16T23:07:29.453Z,12.43
2019-02-16T23:09:59.918Z,13.30
2019-02-16T23:12:30.278Z,15.80
2019-02-16T23:15:00.682Z,19.03
2019-02-16T23:17:31.028Z,15.60
2019-02-16T23:20:01.314Z,10.90
2019-02-16T23:22:31.533Z,17.60
2019-02-16T23:25:01.816Z,16.03
2019-02-16T23:27:32.152Z,12.03
2019-02-16T23:30:02.442Z,13.20
2019-02-16T23:32:32.730Z,15.00
2019-02-16T23:35:03.003Z,17.10
2019-02-16T23:37:33.257Z,9.07
2019-02-16T23:40:03.557Z,8.00
2019-02-16T23:42:33.990Z,11.77
2019-02-16T23:45:04.273Z,10.17
2019-02-16T23:47:34.500Z,9.27
2019-02-16T23:50:05.085Z,7.90
2019-02-16T23:52:35.407Z,8.00
2019-02-16T23:55:05.902Z,13.80
2019-02-16T23:57:36.138Z,9.80
